Time;durP1;ratioP1;P1;durP2;ratioP2;P2;SDS_P1;SDS_P2;PMS_P1;PMS_P2;Temp;Humidity;BMP_temperature;BMP_pressure;BME280_temperature;BME280_humidity;BME280_pressure;Samples;Min_cycle;Max_cycle;Signal;HPM_P1;HPM_P2
2021/09/13 00:00:34;;;;;;;4.20;2.40;;;;;;;12.17;100.00;94005.28;5114250;28;20225;-80
2021/09/13 00:03:02;;;;;;;4.80;2.47;;;;;;;12.13;100.00;94004.09;5114532;28;20193;-79
2021/09/13 00:05:29;;;;;;;4.97;2.90;;;;;;;12.16;100.00;93995.81;5114482;28;20201;-79
2021/09/13 00:07:56;;;;;;;5.57;2.87;;;;;;;12.26;100.00;93999.81;5114232;28;20652;-79
2021/09/13 00:10:23;;;;;;;6.23;2.97;;;;;;;12.26;100.00;94000.63;5114440;28;20636;-79
2021/09/13 00:12:50;;;;;;;5.70;3.00;;;;;;;12.29;100.00;94009.88;5114198;28;20194;-79
2021/09/13 00:15:17;;;;;;;5.37;3.23;;;;;;;12.30;100.00;94008.88;5114074;28;20213;-78
2021/09/13 00:17:43;;;;;;;5.33;3.20;;;;;;;12.33;100.00;94006.66;5114238;28;20563;-79
2021/09/13 00:20:12;;;;;;;4.97;3.10;;;;;;;12.40;100.00;94004.03;5114107;28;20225;-79
2021/09/13 00:22:38;;;;;;;4.17;2.80;;;;;;;12.44;100.00;94007.03;5114069;28;20695;-79
2021/09/13 00:25:06;;;;;;;6.07;3.28;;;;;;;12.47;100.00;94006.63;5113726;28;20201;-78
2021/09/13 00:27:32;;;;;;;6.22;3.60;;;;;;;12.53;100.00;94003.97;5114213;28;20201;-79
2021/09/13 00:29:59;;;;;;;4.93;2.70;;;;;;;12.58;100.00;94003.38;5113864;28;20201;-80
2021/09/13 00:32:25;;;;;;;4.95;2.85;;;;;;;12.66;100.00;94002.34;5114005;28;20204;-79
2021/09/13 00:34:52;;;;;;;3.78;2.65;;;;;;;12.74;100.00;93994.25;5113980;28;20197;-79
2021/09/13 00:37:20;;;;;;;4.20;2.90;;;;;;;12.80;100.00;93990.78;5113873;28;20209;-79
2021/09/13 00:39:49;;;;;;;5.05;2.70;;;;;;;12.88;100.00;94005.47;5113666;28;20236;-79
2021/09/13 00:42:16;;;;;;;5.03;2.90;;;;;;;12.91;100.00;94007.69;5113635;28;20216;-79
2021/09/13 00:44:42;;;;;;;9.40;3.17;;;;;;;12.96;100.00;93992.91;5113637;28;20543;-79
2021/09/13 00:47:09;;;;;;;3.45;2.30;;;;;;;13.01;100.00;93996.75;5113050;28;20210;-79
2021/09/13 00:49:35;;;;;;;5.43;2.78;;;;;;;13.03;100.00;93994.72;5113434;28;20202;-79
2021/09/13 00:52:02;;;;;;;4.10;2.20;;;;;;;13.05;100.00;94000.53;5113603;28;20201;-79
2021/09/13 00:54:29;;;;;;;4.47;2.67;;;;;;;13.04;100.00;93991.06;5113361;28;20208;-79
2021/09/13 00:56:56;;;;;;;5.50;2.67;;;;;;;13.04;100.00;93996.31;5112015;28;20216;-79
2021/09/13 00:59:23;;;;;;;10.63;2.83;;;;;;;13.02;100.00;93995.72;5112675;28;20212;-79
2021/09/13 01:01:50;;;;;;;4.53;2.83;;;;;;;13.02;100.00;93995.72;5113548;28;20201;-79
2021/09/13 01:04:17;;;;;;;6.30;2.90;;;;;;;13.05;100.00;93995.28;5113454;28;20657;-79
2021/09/13 01:06:43;;;;;;;4.70;2.60;;;;;;;13.02;100.00;93987.84;5113441;28;20197;-80
2021/09/13 01:09:10;;;;;;;3.78;2.42;;;;;;;12.95;100.00;93977.41;5113311;28;20204;-80
2021/09/13 01:11:38;;;;;;;3.55;2.42;;;;;;;12.89;100.00;93976.44;5113207;28;20661;-79
2021/09/13 01:14:05;;;;;;;3.53;2.60;;;;;;;12.81;100.00;93981.91;5113485;28;20207;-79
2021/09/13 01:16:31;;;;;;;3.57;2.37;;;;;;;12.77;100.00;93971.06;5113430;28;20197;-80
2021/09/13 01:18:58;;;;;;;5.07;2.55;;;;;;;12.69;100.00;93978.31;5113216;28;20234;-79
2021/09/13 01:21:26;;;;;;;3.17;2.50;;;;;;;12.67;100.00;93975.13;5113304;28;20560;-79
2021/09/13 01:23:55;;;;;;;5.73;2.67;;;;;;;12.64;100.00;93973.72;5113202;28;20208;-79
2021/09/13 01:26:21;;;;;;;4.03;2.80;;;;;;;12.61;100.00;93968.91;5113115;28;20229;-79
2021/09/13 01:28:47;;;;;;;5.97;2.90;;;;;;;12.61;100.00;93965.47;5113390;28;20201;-79
2021/09/13 01:31:14;;;;;;;5.17;2.73;;;;;;;12.53;100.00;93969.13;5113314;28;20200;-79
2021/09/13 01:33:40;;;;;;;8.50;3.13;;;;;;;12.46;100.00;93963.94;5113246;28;20205;-79
2021/09/13 01:36:07;;;;;;;3.30;2.80;;;;;;;12.40;100.00;93964.75;5113156;28;20201;-79
2021/09/13 01:38:33;;;;;;;6.13;2.85;;;;;;;12.30;100.00;93962.56;5112989;28;20567;-78
2021/09/13 01:41:01;;;;;;;4.13;2.75;;;;;;;12.28;100.00;93967.19;5113114;28;20236;-79
2021/09/13 01:43:28;;;;;;;7.83;3.20;;;;;;;12.32;100.00;93963.19;5113280;28;20198;-79
2021/09/13 01:45:54;;;;;;;6.30;3.10;;;;;;;12.33;100.00;93962.16;5113165;28;20201;-79
2021/09/13 01:48:21;;;;;;;4.80;3.30;;;;;;;12.26;100.00;93958.75;5113238;28;20209;-79
2021/09/13 01:50:48;;;;;;;3.30;2.70;;;;;;;12.21;100.00;93964.59;5112998;28;20201;-79
2021/09/13 01:53:15;;;;;;;6.53;3.43;;;;;;;12.30;100.00;93959.16;5112944;28;20209;-80
2021/09/13 01:55:41;;;;;;;8.07;3.47;;;;;;;12.33;100.00;93967.38;5112875;28;20216;-79
2021/09/13 01:58:09;;;;;;;9.17;3.30;;;;;;;12.33;100.00;93964.75;5112565;28;20201;-79
2021/09/13 02:00:35;;;;;;;4.33;3.00;;;;;;;12.24;100.00;93971.25;5112866;28;20315;-79
2021/09/13 02:03:02;;;;;;;4.93;3.03;;;;;;;12.30;100.00;93961.75;5112873;28;20252;-79
2021/09/13 02:05:28;;;;;;;7.40;3.40;;;;;;;12.34;100.00;93968.19;5112859;28;20210;-79
2021/09/13 02:07:55;;;;;;;5.47;3.10;;;;;;;12.33;100.00;93964.75;5112855;28;20193;-79
2021/09/13 02:10:22;;;;;;;4.30;2.97;;;;;;;12.19;100.00;93964.00;5113017;28;20210;-79
2021/09/13 02:12:48;;;;;;;5.60;3.10;;;;;;;12.18;100.00;93959.78;5116500;28;20212;-79
2021/09/13 02:15:16;;;;;;;5.67;3.30;;;;;;;12.19;100.00;93953.53;5116564;28;20220;-80
2021/09/13 02:17:44;;;;;;;6.30;3.13;;;;;;;12.23;100.00;93953.13;5116479;28;20243;-79
2021/09/13 02:20:12;;;;;;;5.53;3.53;;;;;;;12.18;100.00;93941.44;5116202;28;20217;-78
2021/09/13 02:22:38;;;;;;;6.40;3.40;;;;;;;12.18;100.00;93948.50;5116365;28;20208;-79
2021/09/13 02:25:06;;;;;;;6.30;3.43;;;;;;;12.14;100.00;93953.34;5116302;28;20205;-78
2021/09/13 02:27:32;;;;;;;5.87;3.27;;;;;;;12.09;100.00;93947.94;5116460;28;20216;-79
2021/09/13 02:29:59;;;;;;;3.63;2.87;;;;;;;11.99;100.00;93947.53;5116223;28;20564;-79
2021/09/13 02:32:27;;;;;;;4.50;2.90;;;;;;;11.95;100.00;93946.34;5116222;28;20205;-79
2021/09/13 02:34:53;;;;;;;8.00;3.50;;;;;;;11.91;100.00;93945.13;5116057;28;20597;-79
2021/09/13 02:37:20;;;;;;;4.90;3.08;;;;;;;11.85;100.00;93942.28;5116293;28;20201;-79
2021/09/13 02:39:46;;;;;;;7.93;3.80;;;;;;;11.89;100.00;93939.28;5116003;27;20571;-80
2021/09/13 02:42:13;;;;;;;6.07;3.60;;;;;;;12.01;100.00;93940.31;5116158;28;20204;-79
2021/09/13 02:44:39;;;;;;;5.30;3.53;;;;;;;11.97;100.00;93946.94;5116026;28;20571;-79
2021/09/13 02:47:06;;;;;;;6.47;3.13;;;;;;;11.92;100.00;93944.94;5115940;28;20194;-80
2021/09/13 02:49:33;;;;;;;12.03;3.60;;;;;;;11.94;100.00;93939.50;5116121;28;20303;-79
2021/09/13 02:52:00;;;;;;;7.80;3.33;;;;;;;11.88;100.00;93941.09;5115953;28;20212;-80
2021/09/13 02:54:26;;;;;;;5.93;3.43;;;;;;;11.89;100.00;93952.34;5115929;28;20204;-80
2021/09/13 02:56:53;;;;;;;5.87;3.13;;;;;;;11.79;100.00;93942.31;5115816;28;20202;-79
2021/09/13 02:59:19;;;;;;;5.17;2.90;;;;;;;11.74;100.00;93944.72;5115746;28;20201;-79
2021/09/13 03:01:46;;;;;;;6.33;3.63;;;;;;;11.76;100.00;93942.72;5115566;28;20595;-79
2021/09/13 03:04:12;;;;;;;4.33;3.30;;;;;;;11.69;100.00;93942.75;5115821;28;20197;-79
2021/09/13 03:06:40;;;;;;;7.47;3.63;;;;;;;11.78;100.00;93943.34;5115528;28;20197;-79
2021/09/13 03:09:06;;;;;;;5.00;3.50;;;;;;;11.81;100.00;93945.53;5115642;28;20204;-79
2021/09/13 03:11:33;;;;;;;8.33;3.70;;;;;;;11.78;100.00;93946.75;5115577;27;20204;-79
2021/09/13 03:13:59;;;;;;;5.77;3.70;;;;;;;11.69;100.00;93940.13;5115290;28;20563;-79
2021/09/13 03:16:26;;;;;;;6.73;3.50;;;;;;;11.84;100.00;93942.53;5115326;28;20193;-79
2021/09/13 03:18:52;;;;;;;5.80;3.10;;;;;;;11.79;100.00;93943.13;5115495;28;20213;-79
2021/09/13 03:21:19;;;;;;;6.17;3.50;;;;;;;11.71;100.00;93956.41;5115281;28;20259;-80
2021/09/13 03:23:47;;;;;;;5.13;3.17;;;;;;;11.52;100.00;93954.59;5114261;28;20574;-80
2021/09/13 03:26:13;;;;;;;4.60;3.53;;;;;;;11.53;100.00;93954.41;5114900;28;20276;-79
2021/09/13 03:28:40;;;;;;;4.30;2.93;;;;;;;11.41;100.00;93950.81;5115120;28;20555;-79
2021/09/13 03:31:06;;;;;;;11.33;3.10;;;;;;;11.43;100.00;93952.19;5114954;28;20603;-79
2021/09/13 03:33:33;;;;;;;5.83;3.47;;;;;;;11.32;100.00;93952.00;5115196;28;20200;-79
2021/09/13 03:36:00;;;;;;;5.77;3.60;;;;;;;11.21;100.00;93950.78;5115093;28;20251;-79
2021/09/13 03:38:26;;;;;;;6.23;4.00;;;;;;;11.34;100.00;93949.97;5114935;28;20243;-79
2021/09/13 03:40:54;;;;;;;5.43;3.47;;;;;;;11.19;100.00;93951.00;5114941;28;20225;-78
2021/09/13 03:43:20;;;;;;;6.60;3.90;;;;;;;11.14;100.00;93948.16;5114776;28;20209;-79
2021/09/13 03:45:47;;;;;;;6.13;3.53;;;;;;;11.05;100.00;93946.75;5114692;28;20205;-79
2021/09/13 03:48:14;;;;;;;6.90;3.40;;;;;;;10.98;100.00;93946.72;5114350;28;20209;-79
2021/09/13 03:50:40;;;;;;;8.70;3.23;;;;;;;10.95;100.00;93947.13;5114539;28;20670;-79
2021/09/13 03:53:07;;;;;;;9.33;3.17;;;;;;;10.86;100.00;93943.09;5114679;28;20197;-79
2021/09/13 03:55:35;;;;;;;5.37;3.47;;;;;;;10.86;100.00;93932.66;5114599;28;20205;-79
2021/09/13 03:58:04;;;;;;;4.83;2.93;;;;;;;10.74;100.00;93935.00;5114603;28;20202;-79
2021/09/13 04:00:31;;;;;;;4.33;3.30;;;;;;;10.67;100.00;93934.19;5114596;28;20231;-79
2021/09/13 04:02:57;;;;;;;7.10;3.60;;;;;;;10.84;100.00;93927.63;5114511;28;20201;-79
2021/09/13 04:05:25;;;;;;;6.13;3.83;;;;;;;10.79;100.00;93932.63;5114487;28;20202;-79
2021/09/13 04:08:08;;;;;;;6.03;3.57;;;;;;;10.62;100.00;93926.94;5114438;28;20198;-79
2021/09/13 04:10:38;;;;;;;8.37;3.63;;;;;;;10.63;100.00;93925.97;5114269;28;20624;-79
2021/09/13 04:13:06;;;;;;;8.33;4.10;;;;;;;10.68;100.00;93928.00;5114466;28;20596;-79
2021/09/13 04:15:32;;;;;;;5.43;3.67;;;;;;;10.57;100.00;93926.72;5114271;28;20228;-81
2021/09/13 04:17:59;;;;;;;10.30;3.83;;;;;;;10.48;100.00;93933.16;5114022;28;20197;-80
2021/09/13 04:20:25;;;;;;;7.33;4.07;;;;;;;10.49;100.00;93937.34;5114120;28;20204;-80
2021/09/13 04:22:52;;;;;;;9.27;4.77;;;;;;;10.50;100.00;93928.53;5114115;28;20201;-80
2021/09/13 04:25:18;;;;;;;7.87;4.03;;;;;;;10.54;100.00;93937.56;5113929;28;20229;-79
2021/09/13 04:27:45;;;;;;;6.53;3.87;;;;;;;10.50;100.00;93938.97;5114238;28;20201;-80
2021/09/13 04:30:13;;;;;;;9.07;4.23;;;;;;;10.58;100.00;93933.56;5113910;28;20205;-79
2021/09/13 04:32:39;;;;;;;7.63;4.30;;;;;;;10.51;100.00;93940.59;5113905;28;20204;-80
2021/09/13 04:35:07;;;;;;;5.80;3.60;;;;;;;10.42;100.00;93939.94;5113762;28;20560;-80
2021/09/13 04:37:33;;;;;;;7.17;4.30;;;;;;;10.38;100.00;93924.88;5113902;28;20221;-80
2021/09/13 04:40:00;;;;;;;9.30;4.50;;;;;;;10.62;100.00;93921.72;5113947;28;20206;-80
2021/09/13 04:42:26;;;;;;;12.47;5.07;;;;;;;10.76;100.00;93917.34;5114113;28;20229;-80
2021/09/13 04:44:53;;;;;;;9.17;4.70;;;;;;;10.70;100.00;93923.38;5113659;28;20623;-79
2021/09/13 04:47:20;;;;;;;8.50;4.30;;;;;;;10.62;100.00;93916.50;5113830;28;20197;-80
2021/09/13 04:49:47;;;;;;;11.13;4.20;;;;;;;10.69;100.00;93916.53;5113599;28;20197;-79
2021/09/13 04:52:16;;;;;;;5.93;3.83;;;;;;;10.54;100.00;93919.28;5113530;28;20219;-79
2021/09/13 04:54:43;;;;;;;12.03;4.40;;;;;;;10.66;100.00;93911.72;5113733;28;20208;-79
2021/09/13 04:57:09;;;;;;;8.87;4.67;;;;;;;10.63;100.00;93912.91;5113542;28;20197;-79
2021/09/13 04:59:36;;;;;;;8.83;5.07;;;;;;;10.63;100.00;93914.72;5113600;28;20197;-79
2021/09/13 05:02:03;;;;;;;8.73;4.70;;;;;;;10.76;100.00;93916.53;5113422;28;20229;-80
2021/09/13 05:04:31;;;;;;;14.93;5.00;;;;;;;10.86;100.00;93922.22;5113464;28;20219;-79
2021/09/13 05:06:57;;;;;;;10.97;4.80;;;;;;;10.80;100.00;93923.00;5113336;28;20197;-80
2021/09/13 05:09:24;;;;;;;8.27;4.47;;;;;;;10.63;100.00;93928.56;5113359;28;20540;-79
2021/09/13 05:11:51;;;;;;;8.07;4.10;;;;;;;10.53;100.00;93928.94;5113491;28;20197;-80
2021/09/13 05:14:18;;;;;;;9.03;4.93;;;;;;;10.49;100.00;93926.91;5113414;28;20201;-80
2021/09/13 05:16:44;;;;;;;9.67;4.33;;;;;;;10.44;100.00;93934.53;5113616;28;20237;-79
2021/09/13 05:19:11;;;;;;;8.77;4.83;;;;;;;10.43;100.00;93933.72;5113138;28;20197;-79
2021/09/13 05:21:40;;;;;;;7.47;4.83;;;;;;;10.42;100.00;93932.09;5113073;28;20243;-79
2021/09/13 05:24:07;;;;;;;11.10;5.80;;;;;;;10.62;100.00;93926.94;5113345;28;20243;-80
2021/09/13 05:26:34;;;;;;;11.23;5.77;;;;;;;10.66;100.00;93933.41;5113075;28;20304;-79
2021/09/13 05:29:01;;;;;;;9.43;5.50;;;;;;;10.65;100.00;93933.59;5113232;28;20199;-80
2021/09/13 05:31:27;;;;;;;11.60;5.50;;;;;;;10.73;100.00;93930.81;5113231;28;20201;-80
2021/09/13 05:33:54;;;;;;;13.63;5.60;;;;;;;10.71;100.00;93940.66;5113172;28;20201;-79
2021/09/13 05:36:20;;;;;;;11.23;5.60;;;;;;;10.79;100.00;93937.03;5113329;28;20201;-79
2021/09/13 05:38:48;;;;;;;8.87;5.23;;;;;;;10.80;100.00;93928.22;5113150;28;20202;-79
2021/09/13 05:41:15;;;;;;;10.13;5.77;;;;;;;10.90;100.00;93936.47;5113094;28;20225;-79
2021/09/13 05:43:41;;;;;;;9.60;5.73;;;;;;;10.97;100.00;93934.66;5113167;28;20200;-79
2021/09/13 05:46:08;;;;;;;9.50;5.50;;;;;;;11.01;100.00;93933.28;5114145;28;20211;-79
2021/09/13 05:48:37;;;;;;;11.70;6.07;;;;;;;11.08;100.00;93938.50;5116968;28;20581;-79
2021/09/13 05:51:03;;;;;;;10.57;5.77;;;;;;;11.21;100.00;93935.13;5117197;27;20210;-79
2021/09/13 05:53:30;;;;;;;11.47;6.10;;;;;;;11.27;100.00;93934.28;5117052;28;20202;-79
2021/09/13 05:55:58;;;;;;;9.17;5.43;;;;;;;11.30;100.00;93937.31;5116984;28;20243;-79
2021/09/13 05:58:24;;;;;;;11.17;5.43;;;;;;;11.35;100.00;93943.75;5116408;28;20197;-79
2021/09/13 06:00:51;;;;;;;7.77;5.10;;;;;;;11.41;100.00;93929.88;5116675;28;20205;-79
2021/09/13 06:03:17;;;;;;;9.90;5.93;;;;;;;11.48;100.00;93934.09;5117020;28;20202;-79
2021/09/13 06:05:44;;;;;;;9.70;5.73;;;;;;;11.62;100.00;93928.84;5116961;28;20566;-79
2021/09/13 06:08:10;;;;;;;10.37;6.13;;;;;;;11.75;100.00;93938.50;5116756;28;20209;-79
2021/09/13 06:10:37;;;;;;;11.77;5.83;;;;;;;11.74;100.00;93940.31;5116686;28;20205;-78
2021/09/13 06:13:05;;;;;;;9.43;5.33;;;;;;;11.78;100.00;93943.34;5116640;28;20205;-78
2021/09/13 06:15:32;;;;;;;14.23;6.67;;;;;;;11.88;100.00;93940.31;5116295;27;20259;-79
2021/09/13 06:17:58;;;;;;;8.37;5.57;;;;;;;11.90;100.00;93948.75;5116657;28;20204;-79
2021/09/13 06:20:26;;;;;;;9.67;5.17;;;;;;;11.88;100.00;93948.16;5116621;28;20212;-79
2021/09/13 06:22:52;;;;;;;8.32;5.78;;;;;;;11.90;100.00;93948.75;5116541;28;20241;-79
2021/09/13 06:25:19;;;;;;;9.37;6.13;;;;;;;11.92;100.00;93950.16;5116381;28;20233;-78
2021/09/13 06:27:46;;;;;;;10.65;6.15;;;;;;;11.96;100.00;93953.19;5116428;28;20595;-79
2021/09/13 06:30:14;;;;;;;9.67;6.43;;;;;;;11.96;100.00;93953.19;5116242;28;20201;-79
2021/09/13 06:32:40;;;;;;;10.97;5.27;;;;;;;11.96;100.00;93958.44;5116280;28;20197;-79
2021/09/13 06:35:08;;;;;;;8.70;5.30;;;;;;;12.00;100.00;93959.63;5116387;27;20567;-79
2021/09/13 06:37:34;;;;;;;9.40;5.43;;;;;;;12.11;100.00;93956.38;5116280;28;20194;-79
2021/09/13 06:40:01;;;;;;;9.80;6.40;;;;;;;12.24;100.00;93957.34;5116161;28;20209;-79
2021/09/13 06:42:30;;;;;;;10.33;6.43;;;;;;;12.36;100.00;93960.94;5116138;28;20228;-80
2021/09/13 06:44:57;;;;;;;10.25;6.80;;;;;;;12.50;100.00;93959.88;5115929;28;20720;-79
2021/09/13 06:47:43;;;;;;;9.80;6.53;;;;;;;12.63;100.00;93947.75;5116196;28;20324;-79
2021/09/13 06:50:11;;;;;;;12.38;6.65;;;;;;;12.80;100.00;93943.63;5115989;28;20201;-79
2021/09/13 06:52:39;;;;;;;9.45;5.97;;;;;;;12.98;100.00;93955.22;5115982;28;20194;-79
2021/09/13 06:55:06;;;;;;;17.13;6.25;;;;;;;13.03;100.00;93953.56;5115703;28;20193;-79
2021/09/13 06:57:34;;;;;;;11.13;5.97;;;;;;;13.19;100.00;93952.28;5115653;28;20647;-79
2021/09/13 07:00:03;;;;;;;10.38;5.75;;;;;;;13.36;100.00;93951.78;5115589;28;20655;-79
2021/09/13 07:02:31;;;;;;;9.43;5.95;;;;;;;13.48;100.00;93953.50;5115710;28;20282;-79
2021/09/13 07:04:58;;;;;;;9.77;5.55;;;;;;;13.72;100.00;93960.78;5115607;28;20682;-79
2021/09/13 07:07:25;;;;;;;6.82;5.05;;;;;;;13.97;100.00;93956.31;5115642;28;20197;-79
2021/09/13 07:09:51;;;;;;;6.15;4.55;;;;;;;14.21;100.00;93961.75;5115492;28;20232;-79
2021/09/13 07:12:19;;;;;;;8.05;4.97;;;;;;;14.42;100.00;93961.31;5115700;28;20205;-79
2021/09/13 07:14:45;;;;;;;8.88;4.65;;;;;;;14.57;100.00;93966.19;5115580;28;20202;-79
2021/09/13 07:17:12;;;;;;;9.63;4.78;;;;;;;14.69;100.00;93961.03;5115465;28;20212;-80
2021/09/13 07:19:40;;;;;;;6.25;4.63;;;;;;;14.81;100.00;93974.22;5115301;28;20193;-80
2021/09/13 07:22:07;;;;;;;5.55;4.03;;;;;;;14.99;100.00;93968.13;5115180;28;20221;-79
2021/09/13 07:24:33;;;;;;;5.25;3.53;;;;;;;15.25;100.00;93971.41;5115323;28;20213;-78
2021/09/13 07:27:00;;;;;;;5.43;3.75;;;;;;;15.49;100.00;93970.44;5114186;28;20497;-79
2021/09/13 07:29:26;;;;;;;6.32;3.53;;;;;;;15.64;100.00;93977.13;5115258;28;20255;-79
2021/09/13 07:31:53;;;;;;;4.07;2.88;;;;;;;15.72;100.00;93984.66;5115211;28;20204;-79
2021/09/13 07:34:19;;;;;;;4.05;3.00;;;;;;;15.91;100.00;93980.13;5115147;28;20201;-80
2021/09/13 07:36:47;;;;;;;4.97;3.30;;;;;;;16.04;100.00;93984.38;5114890;28;20254;-79
2021/09/13 07:39:14;;;;;;;4.45;2.88;;;;;;;16.14;100.00;93986.44;5115076;28;20598;-79
2021/09/13 07:41:40;;;;;;;3.80;2.90;;;;;;;16.26;100.00;93977.50;5115019;28;20587;-79
2021/09/13 07:44:07;;;;;;;5.72;3.50;;;;;;;16.31;100.00;93981.28;5114874;28;20202;-76
2021/09/13 07:46:33;;;;;;;6.13;3.10;;;;;;;16.35;100.00;93987.69;5114771;28;20197;-78
2021/09/13 07:49:00;;;;;;;5.50;2.97;;;;;;;16.41;100.00;93986.78;5114755;28;20193;-77
2021/09/13 07:51:26;;;;;;;6.57;3.50;;;;;;;16.61;100.00;93986.41;5114011;28;20198;-77
2021/09/13 07:53:54;;;;;;;4.70;3.30;;;;;;;16.65;100.00;93993.63;5114778;28;20197;-77
2021/09/13 07:56:20;;;;;;;5.38;3.70;;;;;;;16.86;100.00;93988.78;5114571;28;20652;-77
2021/09/13 07:58:47;;;;;;;6.75;3.33;;;;;;;16.95;100.00;93997.94;5114559;28;20209;-77
2021/09/13 08:01:13;;;;;;;6.18;3.30;;;;;;;17.05;100.00;93992.03;5114576;28;20201;-77
2021/09/13 08:03:40;;;;;;;4.15;2.90;;;;;;;17.18;100.00;93996.22;5114405;28;20240;-77
2021/09/13 08:06:07;;;;;;;8.35;3.40;;;;;;;17.32;100.00;93994.91;5114256;28;20563;-78
2021/09/13 08:08:33;;;;;;;3.85;2.95;;;;;;;17.46;100.00;93991.97;5114012;28;20202;-78
2021/09/13 08:11:01;;;;;;;4.88;3.00;;;;;;;17.52;100.00;93997.09;5114444;28;20197;-77
2021/09/13 08:13:28;;;;;;;5.43;3.40;;;;;;;17.73;100.00;93997.44;5113283;28;20423;-76
2021/09/13 08:15:55;;;;;;;5.88;3.20;;;;;;;17.84;100.00;93993.13;5114237;28;20202;-76
2021/09/13 08:18:22;;;;;;;7.00;3.25;;;;;;;17.94;100.00;93993.31;5113971;28;20193;-77
2021/09/13 08:20:48;;;;;;;5.68;3.13;;;;;;;18.13;100.00;93996.50;5114430;28;20556;-77
2021/09/13 08:23:15;;;;;;;3.67;3.28;;;;;;;18.24;100.00;94000.13;5114220;28;20640;-76
2021/09/13 08:25:41;;;;;;;5.90;3.28;;;;;;;18.40;100.00;93998.47;5114078;28;20589;-76
2021/09/13 08:28:12;;;;;;;5.35;3.13;;;;;;;18.54;100.00;94001.59;5114148;28;20197;-76
2021/09/13 08:30:38;;;;;;;5.82;3.80;;;;;;;18.62;100.00;94015.19;5114142;28;20221;-76
2021/09/13 08:33:05;;;;;;;8.20;3.25;;;;;;;18.73;100.00;94007.38;5113964;27;20205;-76
2021/09/13 08:35:31;;;;;;;4.57;3.13;;;;;;;18.91;100.00;94011.59;5113899;28;20197;-76
2021/09/13 08:37:59;;;;;;;8.18;4.00;;;;;;;18.99;100.00;94009.31;5114036;28;20200;-75
2021/09/13 08:40:25;;;;;;;6.18;3.83;;;;;;;19.06;100.00;94018.94;5113935;28;20197;-76
2021/09/13 08:42:52;;;;;;;5.35;3.80;;;;;;;19.28;100.00;94017.03;5113674;28;20716;-76
2021/09/13 08:45:25;;;;;;;6.35;3.85;;;;;;;19.22;100.00;94023.34;5113777;28;20202;-76
2021/09/13 08:48:00;;;;;;;5.55;3.60;;;;;;;19.35;100.00;94022.13;5113686;28;20201;-77
2021/09/13 08:50:35;;;;;;;4.38;3.30;;;;;;;19.45;100.00;94016.16;5113836;28;20196;-76
2021/09/13 08:53:02;;;;;;;6.07;4.18;;;;;;;19.36;100.00;94026.41;5113730;28;20207;-76
2021/09/13 08:55:29;;;;;;;8.30;3.90;;;;;;;19.30;100.00;94030.84;5113048;28;20839;-76
2021/09/13 08:57:58;;;;;;;5.13;3.85;;;;;;;19.45;100.00;94027.56;5113566;28;20197;-77
2021/09/13 09:00:27;;;;;;;5.85;3.60;;;;;;;19.52;100.00;94022.88;5113489;28;20230;-76
2021/09/13 09:02:54;;;;;;;6.00;3.88;;;;;;;19.36;100.00;94034.34;5113650;28;20225;-76
2021/09/13 09:05:21;;;;;;;7.72;4.10;;;;;;;19.30;100.00;94032.69;5113571;28;20197;-76
2021/09/13 09:07:50;;;;;;;5.32;3.10;;;;;;;19.13;100.00;94022.16;5113561;28;20193;-77
2021/09/13 09:10:18;;;;;;;8.35;3.28;;;;;;;19.18;100.00;94027.53;5093320;28;20548;-76
2021/09/13 09:13:00;;;;;;;5.30;3.35;;;;;;;19.21;100.00;94034.97;5092947;28;20198;-76
2021/09/13 09:15:29;;;;;;;5.50;3.30;;;;;;;19.22;100.00;94024.13;5093031;28;20202;-77
2021/09/13 09:17:57;;;;;;;5.35;3.50;;;;;;;19.36;100.00;94023.75;5101084;28;20189;-77
2021/09/13 09:20:25;;;;;;;5.90;3.40;;;;;;;19.33;100.00;94019.75;5113251;28;20605;-76
2021/09/13 09:23:02;;;;;;;7.93;3.42;;;;;;;19.19;100.00;94024.63;5117593;28;20229;-76
2021/09/13 09:25:31;;;;;;;8.80;3.65;;;;;;;19.02;100.00;94026.56;5117298;28;20314;-77
2021/09/13 09:27:59;;;;;;;6.55;3.55;;;;;;;18.99;100.00;94029.69;5117643;28;20220;-77
2021/09/13 09:30:35;;;;;;;9.88;3.88;;;;;;;18.85;100.00;94022.13;5117500;28;20201;-77
2021/09/13 09:33:05;;;;;;;4.22;3.25;;;;;;;18.81;100.00;94022.81;5117510;28;20201;-76
2021/09/13 09:35:41;;;;;;;7.10;3.92;;;;;;;18.77;100.00;94033.09;5117219;28;20201;-77
2021/09/13 09:38:26;;;;;;;8.30;4.20;;;;;;;18.78;100.00;94020.66;5117222;28;20200;-76
2021/09/13 09:40:59;;;;;;;5.75;3.10;;;;;;;18.71;100.00;94023.50;5117352;28;20201;-77
2021/09/13 09:43:25;;;;;;;7.88;4.05;;;;;;;18.72;100.00;94025.09;5117153;28;20246;-76
2021/09/13 09:45:54;;;;;;;8.70;3.90;;;;;;;18.74;100.00;94033.59;5116587;28;20202;-77
2021/09/13 09:48:29;;;;;;;5.22;3.55;;;;;;;18.82;100.00;94024.44;5117047;28;20197;-77
2021/09/13 09:50:55;;;;;;;9.43;4.45;;;;;;;19.00;100.00;94025.97;5117183;28;20204;-76
2021/09/13 09:53:22;;;;;;;7.35;3.90;;;;;;;19.33;100.00;94021.59;5117074;28;20246;-77
2021/09/13 09:55:52;;;;;;;9.45;3.78;;;;;;;19.69;100.00;94028.06;5117041;27;20232;-77
2021/09/13 09:58:18;;;;;;;7.88;3.30;;;;;;;19.91;100.00;94019.25;5116916;28;20224;-77
2021/09/13 10:00:46;;;;;;;5.22;3.00;;;;;;;20.19;100.00;94012.84;5116733;28;20202;-77
2021/09/13 10:03:28;;;;;;;6.90;3.45;;;;;;;20.47;100.00;94018.88;5116796;28;20232;-77
2021/09/13 10:05:55;;;;;;;6.22;3.15;;;;;;;20.93;100.00;94024.44;5116937;28;20228;-77
2021/09/13 10:08:22;;;;;;;8.10;3.55;;;;;;;20.87;99.66;94014.88;5116624;28;20201;-77
2021/09/13 10:10:49;;;;;;;9.70;3.47;;;;;;;21.11;100.00;94011.78;5116561;28;20193;-77
2021/09/13 10:13:16;;;;;;;4.68;3.30;;;;;;;21.31;100.00;94009.19;5116815;28;20204;-76
2021/09/13 10:15:42;;;;;;;4.60;2.88;;;;;;;21.41;100.00;94008.41;5116722;28;20598;-77
2021/09/13 10:18:10;;;;;;;5.57;2.90;;;;;;;21.64;92.94;94009.03;5116648;28;20193;-77
2021/09/13 10:20:38;;;;;;;4.63;2.60;;;;;;;21.74;93.56;94006.38;5116593;28;20563;-77
2021/09/13 10:23:05;;;;;;;5.28;2.72;;;;;;;21.74;89.61;94001.88;5116485;28;20229;-77
2021/09/13 10:25:32;;;;;;;3.40;2.33;;;;;;;22.00;89.92;94009.88;5116179;28;20293;-77
2021/09/13 10:28:05;;;;;;;5.15;2.90;;;;;;;22.07;88.76;94001.63;5116640;28;20258;-77
2021/09/13 10:30:34;;;;;;;5.63;2.38;;;;;;;22.14;86.72;93994.94;5116484;28;20297;-77
2021/09/13 10:33:11;;;;;;;6.72;2.50;;;;;;;22.38;86.42;93983.78;5115955;27;20254;-77
2021/09/13 10:35:55;;;;;;;5.47;2.60;;;;;;;22.32;86.67;93984.88;5116273;28;20204;-77
2021/09/13 10:38:40;;;;;;;3.28;2.35;;;;;;;22.52;90.01;93981.38;5116457;27;20212;-77
2021/09/13 10:41:07;;;;;;;6.30;3.00;;;;;;;22.28;83.78;93986.44;5116372;28;20204;-77
2021/09/13 10:43:33;;;;;;;7.22;3.08;;;;;;;22.30;85.24;93986.97;5116066;28;20221;-77
2021/09/13 10:46:00;;;;;;;4.95;2.47;;;;;;;22.29;86.97;93980.09;5116058;28;20202;-77
2021/09/13 10:48:26;;;;;;;3.63;2.30;;;;;;;22.68;79.77;93987.44;5115914;28;20205;-76
2021/09/13 10:50:56;;;;;;;4.00;2.72;;;;;;;22.62;79.40;93988.53;5116147;28;20201;-77
2021/09/13 10:53:33;;;;;;;5.18;2.58;;;;;;;22.03;83.14;93982.72;5116068;27;20544;-77
2021/09/13 10:56:03;;;;;;;5.95;2.30;;;;;;;22.12;82.83;93973.16;5115989;28;20201;-75
2021/09/13 10:58:42;;;;;;;3.65;2.33;;;;;;;22.21;81.28;93976.06;5115866;28;20197;-75
2021/09/13 11:01:11;;;;;;;3.97;2.58;;;;;;;22.61;80.39;93976.28;5115763;28;20250;-77
2021/09/13 11:03:42;;;;;;;3.67;2.20;;;;;;;22.80;81.73;93974.63;5115736;28;20226;-77
2021/09/13 11:06:40;;;;;;;3.17;2.30;;;;;;;22.89;82.23;93973.00;5115839;28;20197;-77
2021/09/13 11:09:10;;;;;;;3.05;2.00;;;;;;;22.54;79.04;93972.03;5115587;28;20258;-77
2021/09/13 11:11:40;;;;;;;3.65;2.30;;;;;;;22.79;80.02;93966.91;5115439;28;20446;-77
2021/09/13 11:14:10;;;;;;;2.15;1.63;;;;;;;22.47;77.09;93963.53;5115650;28;20578;-77
2021/09/13 11:16:39;;;;;;;1.80;1.60;;;;;;;22.60;75.24;93966.69;5115662;28;20597;-75
2021/09/13 11:19:10;;;;;;;5.47;2.05;;;;;;;22.52;76.77;93963.53;5115398;28;20201;-77
2021/09/13 11:21:41;;;;;;;3.60;1.92;;;;;;;22.87;77.96;93959.16;5115373;28;20667;-77
2021/09/13 11:24:11;;;;;;;2.20;1.90;;;;;;;23.39;76.76;93958.94;5115173;28;20282;-77
2021/09/13 11:26:39;;;;;;;3.90;1.98;;;;;;;23.53;74.68;93957.25;5115074;28;20232;-78